createdAt,value
2023-01-21T00:01:46.315Z,99111.00
2023-01-21T00:04:17.294Z,99111.00
2023-01-21T00:06:49.254Z,99109.00
2023-01-21T00:09:20.103Z,99115.00
2023-01-21T00:11:50.969Z,99111.00
2023-01-21T00:14:21.855Z,99112.00
2023-01-21T00:16:52.686Z,99116.00
2023-01-21T00:19:23.918Z,99118.00
2023-01-21T00:21:55.056Z,99111.00
2023-01-21T00:24:26.020Z,99120.00
2023-01-21T00:26:56.879Z,99113.00
2023-01-21T00:29:27.785Z,99123.00
2023-01-21T00:31:58.908Z,99128.00
2023-01-21T00:34:29.832Z,99130.00
2023-01-21T00:37:00.958Z,99125.00
2023-01-21T00:39:32.224Z,99166.00
2023-01-21T00:42:04.653Z,99135.00
2023-01-21T00:44:40.110Z,99127.00
2023-01-21T00:47:11.322Z,99135.00
2023-01-21T00:49:42.509Z,99128.00
2023-01-21T00:52:13.906Z,99134.00
2023-01-21T00:54:44.951Z,99139.00
2023-01-21T00:57:16.503Z,99133.00
2023-01-21T00:59:47.612Z,99146.00
2023-01-21T01:02:21.899Z,99143.00
2023-01-21T01:04:52.795Z,99146.00
2023-01-21T01:07:23.661Z,99143.00
2023-01-21T01:09:54.523Z,99137.00
2023-01-21T01:12:25.409Z,99140.00
2023-01-21T01:14:56.280Z,99143.00
2023-01-21T01:17:27.230Z,99142.00
2023-01-21T01:19:58.226Z,99144.00
2023-01-21T01:22:29.101Z,99144.00
2023-01-21T01:24:59.972Z,99152.00
2023-01-21T01:27:31.147Z,99157.00
2023-01-21T01:30:02.669Z,99145.00
2023-01-21T01:32:33.596Z,99150.00
2023-01-21T01:35:04.827Z,99161.00
2023-01-21T01:37:35.676Z,99162.00
2023-01-21T01:40:07.596Z,99161.00
2023-01-21T01:42:38.458Z,99166.00
2023-01-21T01:45:20.739Z,99157.00
2023-01-21T01:48:02.471Z,99168.00
2023-01-21T01:50:37.822Z,99174.00
2023-01-21T01:53:11.846Z,99174.00
2023-01-21T01:55:43.018Z,99170.00
2023-01-21T01:58:16.424Z,99174.00
2023-01-21T02:00:47.353Z,99182.00
2023-01-21T02:03:37.371Z,99187.00
2023-01-21T02:06:08.440Z,99181.00
2023-01-21T02:08:40.109Z,99181.00
2023-01-21T02:11:17.478Z,99195.00
2023-01-21T02:13:54.158Z,99188.00
2023-01-21T02:17:10.658Z,99191.00
2023-01-21T02:20:25.145Z,99202.00
2023-01-21T02:23:41.569Z,99206.00
2023-01-21T02:26:51.239Z,99207.00
2023-01-21T02:30:02.023Z,99201.00
2023-01-21T02:33:13.589Z,99209.00
2023-01-21T02:35:56.167Z,99210.00
2023-01-21T02:38:38.582Z,99215.00
2023-01-21T02:41:46.284Z,99222.00
2023-01-21T02:44:42.188Z,99227.00
2023-01-21T02:47:30.999Z,99221.00
2023-01-21T02:50:34.546Z,99217.00
2023-01-21T02:53:05.806Z,99222.00
2023-01-21T02:55:38.297Z,99223.00
2023-01-21T02:58:12.898Z,99228.00
2023-01-21T03:01:14.918Z,99235.00
2023-01-21T03:04:11.182Z,99237.00
2023-01-21T03:06:59.756Z,99243.00
2023-01-21T03:09:33.012Z,99254.00
2023-01-21T03:12:28.445Z,99242.00
2023-01-21T03:15:34.775Z,99256.00
2023-01-21T03:18:30.675Z,99239.00
2023-01-21T03:21:10.980Z,99246.00
2023-01-21T03:23:48.297Z,99253.00
2023-01-21T03:26:28.382Z,99247.00
2023-01-21T03:29:06.639Z,99259.00
2023-01-21T03:31:41.396Z,99244.00
2023-01-21T03:34:15.732Z,99250.00
2023-01-21T03:37:13.591Z,99259.00
2023-01-21T03:39:48.780Z,99256.00
2023-01-21T03:42:20.836Z,99262.00
2023-01-21T03:44:51.873Z,99266.00
2023-01-21T03:47:29.560Z,99250.00
2023-01-21T03:50:15.097Z,99258.00
2023-01-21T03:52:46.507Z,99262.00
2023-01-21T03:55:19.693Z,99260.00
2023-01-21T03:57:50.540Z,99260.00
2023-01-21T04:00:21.741Z,99262.00
2023-01-21T04:02:52.564Z,99263.00
2023-01-21T04:05:23.512Z,99268.00
2023-01-21T04:07:54.337Z,99264.00
2023-01-21T04:10:25.200Z,99263.00
2023-01-21T04:12:56.085Z,99266.00
2023-01-21T04:15:26.970Z,99279.00
2023-01-21T04:17:57.794Z,99273.00
2023-01-21T04:20:28.752Z,99272.00
2023-01-21T04:22:59.571Z,99285.00
2023-01-21T04:25:30.466Z,99282.00
2023-01-21T04:28:01.319Z,99278.00
2023-01-21T04:30:32.234Z,99284.00
2023-01-21T04:33:03.091Z,99290.00
2023-01-21T04:35:36.846Z,99285.00
2023-01-21T04:38:07.734Z,99280.00
2023-01-21T04:40:38.583Z,99272.00
2023-01-21T04:43:09.436Z,99288.00
2023-01-21T04:45:40.330Z,99283.00
2023-01-21T04:48:11.203Z,99287.00
2023-01-21T04:50:42.089Z,99287.00
2023-01-21T04:53:12.979Z,99283.00
2023-01-21T04:55:43.860Z,99294.00
2023-01-21T04:58:14.692Z,99297.00
2023-01-21T05:00:45.672Z,99290.00
2023-01-21T05:03:16.594Z,99293.00
2023-01-21T05:05:47.487Z,99292.00
2023-01-21T05:08:18.321Z,99296.00
2023-01-21T05:10:49.241Z,99299.00
2023-01-21T05:13:20.093Z,99300.00
2023-01-21T05:15:51.075Z,99307.00
2023-01-21T05:18:21.935Z,99299.00
2023-01-21T05:20:52.878Z,99308.00
2023-01-21T05:23:23.870Z,99311.00
2023-01-21T05:25:54.748Z,99313.00
2023-01-21T05:28:25.810Z,99311.00
2023-01-21T05:31:03.810Z,99315.00
2023-01-21T05:33:35.761Z,99318.00
2023-01-21T05:36:07.205Z,99322.00
2023-01-21T05:38:38.069Z,99326.00
2023-01-21T05:41:08.912Z,99326.00
2023-01-21T05:43:39.740Z,99327.00
2023-01-21T05:46:10.715Z,99326.00
2023-01-21T05:48:41.601Z,99326.00
2023-01-21T05:51:12.676Z,99328.00
2023-01-21T05:53:43.641Z,99338.00
2023-01-21T05:56:14.652Z,99340.00
2023-01-21T05:58:45.483Z,99343.00
2023-01-21T06:01:16.363Z,99349.00
2023-01-21T06:03:47.227Z,99363.00
2023-01-21T06:06:18.080Z,99367.00
2023-01-21T06:08:51.510Z,99360.00
2023-01-21T06:11:22.360Z,99355.00
2023-01-21T06:13:53.187Z,99357.00
2023-01-21T06:16:29.051Z,99345.00
2023-01-21T06:18:59.880Z,99354.00
2023-01-21T06:21:30.813Z,99361.00
2023-01-21T06:24:02.573Z,99357.00
2023-01-21T06:26:34.188Z,99355.00
2023-01-21T06:29:05.160Z,99356.00
2023-01-21T06:31:45.020Z,99370.00
2023-01-21T06:34:18.311Z,99375.00
2023-01-21T06:36:49.186Z,99383.00
2023-01-21T06:39:20.028Z,99406.00
2023-01-21T06:41:52.002Z,99401.00
2023-01-21T06:44:24.549Z,99392.00
2023-01-21T06:47:01.197Z,99398.00
2023-01-21T06:49:32.459Z,99403.00
2023-01-21T06:52:03.354Z,99401.00
2023-01-21T06:54:34.293Z,99390.00
2023-01-21T06:57:05.163Z,99403.00
2023-01-21T06:59:36.039Z,99407.00
2023-01-21T07:02:07.882Z,99409.00
2023-01-21T07:04:41.375Z,99419.00
2023-01-21T07:07:12.249Z,99421.00
2023-01-21T07:09:43.370Z,99425.00
2023-01-21T07:12:17.242Z,99429.00
2023-01-21T07:14:48.248Z,99441.00
2023-01-21T07:17:19.253Z,99436.00
2023-01-21T07:19:50.161Z,99447.00
2023-01-21T07:22:20.999Z,99444.00
2023-01-21T07:24:51.904Z,99461.00
2023-01-21T07:27:22.798Z,99450.00
2023-01-21T07:29:53.641Z,99467.00
2023-01-21T07:32:24.541Z,99473.00
2023-01-21T07:34:55.412Z,99472.00
2023-01-21T07:37:26.243Z,99470.00
2023-01-21T07:39:57.119Z,99471.00
2023-01-21T07:42:27.985Z,99473.00
2023-01-21T07:44:59.612Z,99467.00
2023-01-21T07:47:30.611Z,99463.00
2023-01-21T07:50:05.022Z,99467.00
2023-01-21T07:52:36.107Z,99468.00
2023-01-21T07:55:08.431Z,99471.00
2023-01-21T07:57:41.965Z,99467.00
2023-01-21T08:00:13.716Z,99467.00
2023-01-21T08:02:44.855Z,99465.00
2023-01-21T08:05:16.262Z,99464.00
2023-01-21T08:07:47.287Z,99461.00
2023-01-21T08:10:19.786Z,99474.00
2023-01-21T08:12:50.645Z,99472.00
2023-01-21T08:15:21.508Z,99483.00
2023-01-21T08:17:52.418Z,99474.00
2023-01-21T08:20:23.954Z,99468.00
2023-01-21T08:22:54.983Z,99479.00
2023-01-21T08:25:25.889Z,99478.00
2023-01-21T08:28:00.072Z,99471.00
2023-01-21T08:30:31.036Z,99471.00
2023-01-21T08:33:01.877Z,99464.00
2023-01-21T08:35:32.740Z,99468.00
2023-01-21T08:38:03.647Z,99477.00
2023-01-21T08:40:34.589Z,99477.00
2023-01-21T08:43:09.286Z,99470.00
2023-01-21T08:45:40.305Z,99470.00
2023-01-21T08:48:11.162Z,99485.00
2023-01-21T08:50:42.172Z,99482.00
2023-01-21T08:53:13.033Z,99480.00
2023-01-21T08:55:44.083Z,99477.00
2023-01-21T08:58:14.973Z,99485.00
2023-01-21T09:00:45.933Z,99479.00
2023-01-21T09:03:17.797Z,99475.00
2023-01-21T09:05:51.709Z,99476.00
2023-01-21T09:08:22.536Z,99484.00
2023-01-21T09:11:01.478Z,99468.00
2023-01-21T09:13:38.390Z,99477.00
2023-01-21T09:16:12.782Z,99473.00
2023-01-21T09:18:46.086Z,99484.00
2023-01-21T09:21:17.607Z,99480.00
2023-01-21T09:23:48.455Z,99483.00
2023-01-21T09:26:22.106Z,99483.00
2023-01-21T09:29:01.218Z,99472.00
2023-01-21T09:31:32.456Z,99481.00
2023-01-21T09:34:09.773Z,99484.00
2023-01-21T09:36:41.330Z,99491.00
2023-01-21T09:39:12.188Z,99488.00
2023-01-21T09:41:52.473Z,99492.00
2023-01-21T09:44:36.667Z,99490.00
2023-01-21T09:47:29.848Z,99489.00
2023-01-21T09:50:15.140Z,99492.00
2023-01-21T09:52:52.267Z,99496.00
2023-01-21T09:55:41.356Z,99497.00
2023-01-21T09:58:35.759Z,99500.00
2023-01-21T10:01:26.255Z,99507.00
2023-01-21T10:04:46.634Z,99489.00
2023-01-21T10:07:30.056Z,99494.00
2023-01-21T10:10:15.091Z,99486.00
2023-01-21T10:13:25.898Z,99485.00
2023-01-21T10:16:15.036Z,99498.00
2023-01-21T10:18:50.592Z,99503.00
2023-01-21T10:21:57.243Z,99486.00
2023-01-21T10:24:35.501Z,99481.00
2023-01-21T10:27:12.694Z,99479.00
2023-01-21T10:29:44.496Z,99471.00
2023-01-21T10:32:28.110Z,99486.00
2023-01-21T10:34:59.021Z,99481.00
2023-01-21T10:38:12.819Z,99491.00
2023-01-21T10:41:07.030Z,99493.00
2023-01-21T10:44:02.497Z,99493.00
2023-01-21T10:47:17.016Z,99486.00
2023-01-21T10:50:05.846Z,99484.00
2023-01-21T10:52:48.596Z,99477.00
2023-01-21T10:56:01.732Z,99479.00
2023-01-21T10:58:48.291Z,99479.00
2023-01-21T11:01:34.911Z,99466.00
2023-01-21T11:04:22.061Z,99448.00
2023-01-21T11:07:04.213Z,99448.00
2023-01-21T11:09:41.477Z,99460.00
2023-01-21T11:12:18.637Z,99467.00
2023-01-21T11:15:01.274Z,99467.00
2023-01-21T11:17:40.096Z,99466.00
2023-01-21T11:20:44.011Z,99474.00
2023-01-21T11:23:35.868Z,99465.00
2023-01-21T11:26:33.898Z,99462.00
2023-01-21T11:29:16.186Z,99464.00
2023-01-21T11:32:04.608Z,99457.00
2023-01-21T11:34:35.644Z,99458.00
2023-01-21T11:37:08.858Z,99445.00
2023-01-21T11:39:57.870Z,99442.00
2023-01-21T11:42:28.761Z,99440.00
2023-01-21T11:45:04.668Z,99442.00
2023-01-21T11:47:40.617Z,99441.00
2023-01-21T11:50:35.046Z,99441.00
2023-01-21T11:53:12.537Z,99435.00
2023-01-21T11:55:52.758Z,99446.00
2023-01-21T11:58:37.429Z,99436.00
2023-01-21T12:01:20.201Z,99429.00
2023-01-21T12:04:01.225Z,99437.00
2023-01-21T12:06:35.469Z,99436.00
2023-01-21T12:09:08.039Z,99438.00
2023-01-21T12:11:39.380Z,99434.00
2023-01-21T12:14:41.712Z,99431.00
2023-01-21T12:17:40.822Z,99435.00
2023-01-21T12:20:12.599Z,99435.00
2023-01-21T12:23:13.122Z,99458.00
2023-01-21T12:26:15.012Z,99423.00
2023-01-21T12:29:34.674Z,99417.00
2023-01-21T12:32:14.882Z,99424.00
2023-01-21T12:35:00.004Z,99422.00
2023-01-21T12:37:48.362Z,99431.00
2023-01-21T12:40:36.035Z,99420.00
2023-01-21T12:43:17.283Z,99426.00
2023-01-21T12:45:59.910Z,99422.00
2023-01-21T12:49:23.923Z,99427.00
2023-01-21T12:52:10.992Z,99433.00
2023-01-21T12:55:03.961Z,99429.00
2023-01-21T12:57:44.278Z,99425.00
2023-01-21T13:00:49.147Z,99435.00
2023-01-21T13:03:55.031Z,99427.00
2023-01-21T13:06:52.789Z,99429.00
2023-01-21T13:10:15.894Z,99440.00
2023-01-21T13:12:58.631Z,99439.00
2023-01-21T13:15:34.309Z,99433.00
2023-01-21T13:18:14.781Z,99429.00
2023-01-21T13:20:57.516Z,99432.00
2023-01-21T13:23:29.319Z,99436.00
2023-01-21T13:26:22.930Z,99441.00
2023-01-21T13:29:02.678Z,99443.00
2023-01-21T13:31:53.046Z,99442.00
2023-01-21T13:34:39.551Z,99451.00
2023-01-21T13:37:22.352Z,99443.00
2023-01-21T13:40:21.227Z,99442.00
2023-01-21T13:43:32.497Z,99440.00
2023-01-21T13:46:47.382Z,99441.00
2023-01-21T13:49:39.183Z,99443.00
2023-01-21T13:52:21.639Z,99442.00
2023-01-21T13:55:12.995Z,99456.00
2023-01-21T13:58:19.723Z,99451.00
2023-01-21T14:00:59.325Z,99451.00
2023-01-21T14:03:54.622Z,99467.00
2023-01-21T14:06:43.083Z,99466.00
2023-01-21T14:09:24.485Z,99464.00
2023-01-21T14:12:17.977Z,99452.00
2023-01-21T14:15:07.061Z,99454.00
2023-01-21T14:17:54.847Z,99451.00
2023-01-21T14:20:57.591Z,99463.00
2023-01-21T14:24:25.511Z,99472.00
2023-01-21T14:27:32.335Z,99472.00
2023-01-21T14:30:28.256Z,99468.00
2023-01-21T14:33:09.406Z,99461.00
2023-01-21T14:35:53.006Z,99469.00
2023-01-21T14:38:34.601Z,99467.00
2023-01-21T14:41:12.590Z,99482.00
2023-01-21T14:43:48.673Z,99481.00
2023-01-21T14:46:30.579Z,99478.00
2023-01-21T14:49:08.400Z,99481.00
2023-01-21T14:51:50.002Z,99487.00
2023-01-21T14:54:26.822Z,99490.00
2023-01-21T14:57:18.207Z,99492.00
2023-01-21T14:59:50.667Z,99498.00
2023-01-21T15:02:35.813Z,99491.00
2023-01-21T15:05:31.909Z,99504.00
2023-01-21T15:08:11.634Z,99509.00
2023-01-21T15:10:43.088Z,99505.00
2023-01-21T15:13:34.136Z,99509.00
2023-01-21T15:16:34.449Z,99511.00
2023-01-21T15:19:18.988Z,99511.00
2023-01-21T15:22:16.582Z,99513.00
2023-01-21T15:25:29.100Z,99516.00
2023-01-21T15:28:24.990Z,99519.00
2023-01-21T15:31:03.723Z,99514.00
2023-01-21T15:33:45.883Z,99517.00
2023-01-21T15:36:26.271Z,99516.00
2023-01-21T15:39:09.984Z,99522.00
2023-01-21T15:42:19.027Z,99520.00
2023-01-21T15:45:23.741Z,99530.00
2023-01-21T15:48:40.862Z,99530.00
2023-01-21T15:52:07.374Z,99536.00
2023-01-21T15:55:10.697Z,99528.00
2023-01-21T15:57:54.463Z,99514.00
2023-01-21T16:00:38.128Z,99523.00
2023-01-21T16:03:30.497Z,99518.00
2023-01-21T16:06:23.290Z,99527.00
2023-01-21T16:09:06.439Z,99528.00
2023-01-21T16:12:14.703Z,99530.00
2023-01-21T16:15:02.120Z,99531.00
2023-01-21T16:17:59.114Z,99528.00
2023-01-21T16:20:32.412Z,99530.00
2023-01-21T16:23:08.399Z,99529.00
2023-01-21T16:25:47.568Z,99535.00
2023-01-21T16:28:20.506Z,99545.00
2023-01-21T16:30:57.676Z,99534.00
2023-01-21T16:33:28.613Z,99536.00
2023-01-21T16:36:07.290Z,99541.00
2023-01-21T16:38:38.294Z,99543.00
2023-01-21T16:41:12.569Z,99540.00
2023-01-21T16:43:54.639Z,99548.00
2023-01-21T16:46:34.412Z,99551.00
2023-01-21T16:49:17.447Z,99544.00
2023-01-21T16:52:01.773Z,99565.00
2023-01-21T16:54:33.324Z,99554.00
2023-01-21T16:57:29.747Z,99548.00
2023-01-21T17:00:02.537Z,99555.00
2023-01-21T17:02:34.588Z,99550.00
2023-01-21T17:05:06.269Z,99562.00
2023-01-21T17:07:54.143Z,99568.00
2023-01-21T17:10:37.650Z,99560.00
2023-01-21T17:13:16.880Z,99570.00
2023-01-21T17:16:00.903Z,99575.00
2023-01-21T17:18:37.411Z,99598.00
2023-01-21T17:21:20.639Z,99576.00
2023-01-21T17:24:08.003Z,99574.00
2023-01-21T17:26:44.577Z,99573.00
2023-01-21T17:29:29.435Z,99581.00
2023-01-21T17:32:05.571Z,99585.00
2023-01-21T17:34:40.457Z,99585.00
2023-01-21T17:38:02.385Z,99591.00
2023-01-21T17:41:16.178Z,99589.00
2023-01-21T17:43:50.445Z,99613.00
2023-01-21T17:46:25.112Z,99588.00
2023-01-21T17:49:10.774Z,99594.00
2023-01-21T17:51:45.255Z,99586.00
2023-01-21T17:54:29.448Z,99595.00
2023-01-21T17:57:00.572Z,99589.00
2023-01-21T17:59:39.037Z,99611.00
2023-01-21T18:02:16.219Z,99599.00
2023-01-21T18:04:47.264Z,99593.00
2023-01-21T18:07:26.642Z,99588.00
2023-01-21T18:10:04.083Z,99597.00
2023-01-21T18:12:38.093Z,99592.00
2023-01-21T18:15:13.942Z,99588.00
2023-01-21T18:17:48.806Z,99587.00
2023-01-21T18:20:26.431Z,99593.00
2023-01-21T18:22:58.874Z,99590.00
2023-01-21T18:25:30.254Z,99580.00
2023-01-21T18:28:04.178Z,99590.00
2023-01-21T18:30:38.163Z,99586.00
2023-01-21T18:33:13.159Z,99595.00
2023-01-21T18:35:46.233Z,99596.00
2023-01-21T18:38:30.247Z,99590.00
2023-01-21T18:41:02.676Z,99590.00
2023-01-21T18:43:33.549Z,99583.00
2023-01-21T18:46:13.340Z,99593.00
2023-01-21T18:48:44.279Z,99590.00
2023-01-21T18:51:15.266Z,99578.00
2023-01-21T18:53:46.225Z,99581.00
2023-01-21T18:56:17.278Z,99580.00
2023-01-21T18:58:48.129Z,99583.00
2023-01-21T19:01:23.695Z,99570.00
2023-01-21T19:03:55.189Z,99567.00
2023-01-21T19:06:26.179Z,99569.00
2023-01-21T19:08:57.020Z,99575.00
2023-01-21T19:11:27.907Z,99572.00
2023-01-21T19:13:58.754Z,99573.00
2023-01-21T19:16:29.668Z,99574.00
2023-01-21T19:19:00.572Z,99565.00
2023-01-21T19:21:31.451Z,99582.00
2023-01-21T19:24:02.272Z,99563.00
2023-01-21T19:26:40.246Z,99568.00
2023-01-21T19:29:15.628Z,99589.00
2023-01-21T19:31:46.674Z,99571.00
2023-01-21T19:34:17.678Z,99565.00
2023-01-21T19:36:48.792Z,99557.00
2023-01-21T19:39:26.155Z,99555.00
2023-01-21T19:42:07.577Z,99586.00
2023-01-21T19:44:39.545Z,99571.00
2023-01-21T19:47:29.633Z,99580.00
2023-01-21T19:50:03.945Z,99567.00
2023-01-21T19:52:35.161Z,99564.00
2023-01-21T19:55:07.173Z,99566.00
2023-01-21T19:57:38.284Z,99563.00
2023-01-21T20:00:25.990Z,99557.00
2023-01-21T20:02:59.234Z,99596.00
2023-01-21T20:05:35.355Z,99568.00
2023-01-21T20:08:10.469Z,99574.00
2023-01-21T20:10:41.692Z,99562.00
2023-01-21T20:13:17.529Z,99586.00
2023-01-21T20:15:53.288Z,99562.00
2023-01-21T20:18:29.699Z,99576.00
2023-01-21T20:21:00.570Z,99575.00
2023-01-21T20:23:32.623Z,99569.00
2023-01-21T20:26:26.311Z,99580.00
2023-01-21T20:29:03.223Z,99574.00
2023-01-21T20:31:35.461Z,99574.00
2023-01-21T20:34:06.374Z,99567.00
2023-01-21T20:36:38.651Z,99572.00
2023-01-21T20:39:13.412Z,99576.00
2023-01-21T20:41:44.528Z,99583.00
2023-01-21T20:44:15.791Z,99575.00
2023-01-21T20:46:46.783Z,99567.00
2023-01-21T20:49:20.498Z,99580.00
2023-01-21T20:51:51.387Z,99577.00
2023-01-21T20:54:26.678Z,99580.00
2023-01-21T20:56:58.925Z,99574.00
2023-01-21T20:59:29.778Z,99577.00
2023-01-21T21:02:03.056Z,99574.00
2023-01-21T21:04:33.926Z,99566.00
2023-01-21T21:07:04.815Z,99582.00
2023-01-21T21:09:36.286Z,99575.00
2023-01-21T21:12:10.173Z,99577.00
2023-01-21T21:14:40.997Z,99573.00
2023-01-21T21:17:15.040Z,99570.00
2023-01-21T21:19:45.883Z,99567.00
2023-01-21T21:22:16.824Z,99575.00
2023-01-21T21:24:47.682Z,99573.00
2023-01-21T21:27:18.530Z,99569.00
2023-01-21T21:29:49.338Z,99569.00
2023-01-21T21:32:22.918Z,99573.00
2023-01-21T21:34:55.144Z,99569.00
2023-01-21T21:37:26.035Z,99572.00
2023-01-21T21:39:56.886Z,99569.00
2023-01-21T21:42:49.344Z,99565.00
2023-01-21T21:45:26.214Z,99563.00
2023-01-21T21:48:15.460Z,99560.00
2023-01-21T21:50:56.778Z,99556.00
2023-01-21T21:53:32.188Z,99554.00
2023-01-21T21:56:10.308Z,99561.00
2023-01-21T21:58:41.476Z,99549.00
2023-01-21T22:01:25.605Z,99547.00
2023-01-21T22:04:02.241Z,99549.00
2023-01-21T22:06:33.833Z,99541.00
2023-01-21T22:09:05.533Z,99534.00
2023-01-21T22:11:36.553Z,99543.00
2023-01-21T22:14:07.976Z,99528.00
2023-01-21T22:16:40.099Z,99539.00
2023-01-21T22:19:12.106Z,99529.00
2023-01-21T22:21:43.059Z,99532.00
2023-01-21T22:24:17.010Z,99533.00
2023-01-21T22:26:47.901Z,99530.00
2023-01-21T22:29:18.715Z,99531.00
2023-01-21T22:31:49.680Z,99527.00
2023-01-21T22:34:20.560Z,99525.00
2023-01-21T22:36:52.224Z,99528.00
2023-01-21T22:39:23.172Z,99527.00
2023-01-21T22:41:58.004Z,99516.00
2023-01-21T22:44:29.101Z,99511.00
2023-01-21T22:47:03.049Z,99518.00
2023-01-21T22:49:36.990Z,99512.00
2023-01-21T22:52:07.922Z,99500.00
2023-01-21T22:54:39.532Z,99496.00
2023-01-21T22:57:10.403Z,99509.00
2023-01-21T22:59:41.353Z,99509.00
2023-01-21T23:02:12.654Z,99510.00
2023-01-21T23:04:43.678Z,99505.00
2023-01-21T23:07:14.548Z,99498.00
2023-01-21T23:09:45.383Z,99501.00
2023-01-21T23:12:18.899Z,99502.00
2023-01-21T23:14:49.737Z,99498.00
2023-01-21T23:17:20.694Z,99490.00
2023-01-21T23:19:51.518Z,99494.00
2023-01-21T23:22:22.384Z,99487.00
2023-01-21T23:24:53.202Z,99492.00
2023-01-21T23:27:24.120Z,99496.00
2023-01-21T23:29:54.961Z,99476.00
2023-01-21T23:32:28.455Z,99479.00
2023-01-21T23:34:59.441Z,99479.00
2023-01-21T23:37:30.281Z,99486.00
2023-01-21T23:40:01.112Z,99472.00
2023-01-21T23:42:32.616Z,99474.00
2023-01-21T23:45:04.453Z,99470.00
2023-01-21T23:47:35.307Z,99483.00
2023-01-21T23:50:08.651Z,99468.00
2023-01-21T23:52:40.721Z,99469.00
2023-01-21T23:55:12.802Z,99470.00
2023-01-21T23:57:43.639Z,99466.00
